sensor_id;sensor_type;location;lat;lon;timestamp;pressure;altitude;pressure_sealevel;temperature;humidity
58757;BME280;44527;47.460;19.016;2023-03-31T00:00:21;99916.87;;;10.70;100.00
58757;BME280;44527;47.460;19.016;2023-03-31T00:03:25;99918.59;;;10.58;100.00
58757;BME280;44527;47.460;19.016;2023-03-31T00:06:28;99913.19;;;10.48;100.00
58757;BME280;44527;47.460;19.016;2023-03-31T00:09:32;99914.19;;;10.58;100.00
58757;BME280;44527;47.460;19.016;2023-03-31T00:12:36;99909.50;;;10.51;100.00
58757;BME280;44527;47.460;19.016;2023-03-31T00:15:39;99913.50;;;10.44;100.00
58757;BME280;44527;47.460;19.016;2023-03-31T00:18:41;99914.31;;;10.57;100.00
58757;BME280;44527;47.460;19.016;2023-03-31T00:21:49;99908.56;;;10.52;100.00
58757;BME280;44527;47.460;19.016;2023-03-31T00:24:52;99904.31;;;10.38;100.00
58757;BME280;44527;47.460;19.016;2023-03-31T00:27:54;99907.47;;;10.30;100.00
58757;BME280;44527;47.460;19.016;2023-03-31T00:31:00;99900.06;;;10.48;100.00
58757;BME280;44527;47.460;19.016;2023-03-31T00:34:03;99896.44;;;10.38;100.00
58757;BME280;44527;47.460;19.016;2023-03-31T00:37:07;99888.56;;;10.25;100.00
58757;BME280;44527;47.460;19.016;2023-03-31T00:40:11;99885.88;;;10.27;100.00
58757;BME280;44527;47.460;19.016;2023-03-31T00:43:26;99894.47;;;10.16;100.00
58757;BME280;44527;47.460;19.016;2023-03-31T00:46:32;99880.91;;;10.22;100.00
58757;BME280;44527;47.460;19.016;2023-03-31T00:52:47;99871.47;;;9.96;100.00
58757;BME280;44527;47.460;19.016;2023-03-31T00:55:53;99877.78;;;9.93;100.00
58757;BME280;44527;47.460;19.016;2023-03-31T00:58:59;99880.91;;;9.98;100.00
58757;BME280;44527;47.460;19.016;2023-03-31T01:02:02;99877.16;;;9.89;100.00
58757;BME280;44527;47.460;19.016;2023-03-31T01:05:06;99878.63;;;9.81;100.00
58757;BME280;44527;47.460;19.016;2023-03-31T01:08:10;99875.19;;;9.80;100.00
58757;BME280;44527;47.460;19.016;2023-03-31T01:11:16;99869.00;;;9.69;100.00
58757;BME280;44527;47.460;19.016;2023-03-31T01:14:19;99870.91;;;9.54;100.00
58757;BME280;44527;47.460;19.016;2023-03-31T01:17:22;99869.03;;;9.56;100.00
58757;BME280;44527;47.460;19.016;2023-03-31T01:43:19;99863.78;;;9.56;100.00
58757;BME280;44527;47.460;19.016;2023-03-31T01:46:27;99864.41;;;9.59;100.00
58757;BME280;44527;47.460;19.016;2023-03-31T01:52:44;99856.97;;;9.66;100.00
58757;BME280;44527;47.460;19.016;2023-03-31T01:56:00;99864.19;;;9.62;100.00
58757;BME280;44527;47.460;19.016;2023-03-31T02:05:15;99859.38;;;9.69;100.00
58757;BME280;44527;47.460;19.016;2023-03-31T02:08:34;99856.66;;;9.71;100.00
58757;BME280;44527;47.460;19.016;2023-03-31T02:11:37;99856.13;;;9.65;100.00
58757;BME280;44527;47.460;19.016;2023-03-31T02:14:42;99860.75;;;9.62;100.00
58757;BME280;44527;47.460;19.016;2023-03-31T02:17:46;99858.13;;;9.62;100.00
58757;BME280;44527;47.460;19.016;2023-03-31T02:20:53;99854.75;;;9.60;100.00
58757;BME280;44527;47.460;19.016;2023-03-31T02:23:59;99864.50;;;9.58;100.00
58757;BME280;44527;47.460;19.016;2023-03-31T02:30:26;99856.75;;;9.56;100.00
58757;BME280;44527;47.460;19.016;2023-03-31T02:33:32;99852.47;;;9.42;100.00
58757;BME280;44527;47.460;19.016;2023-03-31T02:36:34;99860.66;;;9.38;100.00
58757;BME280;44527;47.460;19.016;2023-03-31T02:39:37;99849.84;;;9.55;100.00
58757;BME280;44527;47.460;19.016;2023-03-31T02:42:45;99850.06;;;9.52;100.00
58757;BME280;44527;47.460;19.016;2023-03-31T02:45:49;99847.44;;;9.39;100.00
58757;BME280;44527;47.460;19.016;2023-03-31T02:48:52;99842.53;;;9.48;100.00
58757;BME280;44527;47.460;19.016;2023-03-31T02:58:25;99841.69;;;9.34;100.00
58757;BME280;44527;47.460;19.016;2023-03-31T03:05:20;99824.72;;;9.27;100.00
58757;BME280;44527;47.460;19.016;2023-03-31T03:18:10;99832.38;;;9.17;100.00
58757;BME280;44527;47.460;19.016;2023-03-31T03:21:13;99837.59;;;9.17;100.00
58757;BME280;44527;47.460;19.016;2023-03-31T03:24:15;99828.09;;;9.04;100.00
58757;BME280;44527;47.460;19.016;2023-03-31T03:27:19;99827.56;;;9.11;100.00
58757;BME280;44527;47.460;19.016;2023-03-31T03:30:24;99832.38;;;9.05;100.00
58757;BME280;44527;47.460;19.016;2023-03-31T03:33:26;99832.69;;;9.00;100.00
58757;BME280;44527;47.460;19.016;2023-03-31T03:36:29;99832.56;;;8.89;100.00
58757;BME280;44527;47.460;19.016;2023-03-31T03:39:31;99843.25;;;8.86;100.00
58757;BME280;44527;47.460;19.016;2023-03-31T03:42:34;99838.28;;;8.68;100.00
58757;BME280;44527;47.460;19.016;2023-03-31T03:45:36;99838.25;;;8.56;100.00
58757;BME280;44527;47.460;19.016;2023-03-31T03:48:38;99845.31;;;8.41;100.00
58757;BME280;44527;47.460;19.016;2023-03-31T03:51:41;99835.63;;;8.43;100.00
58757;BME280;44527;47.460;19.016;2023-03-31T03:54:43;99835.75;;;8.27;100.00
58757;BME280;44527;47.460;19.016;2023-03-31T03:57:45;99838.75;;;8.21;100.00
58757;BME280;44527;47.460;19.016;2023-03-31T04:00:47;99836.03;;;8.22;100.00
58757;BME280;44527;47.460;19.016;2023-03-31T04:03:50;99846.78;;;8.18;100.00
58757;BME280;44527;47.460;19.016;2023-03-31T04:06:53;99842.69;;;8.14;100.00
58757;BME280;44527;47.460;19.016;2023-03-31T04:09:55;99835.91;;;8.11;100.00
58757;BME280;44527;47.460;19.016;2023-03-31T04:12:57;99844.19;;;8.18;100.00
58757;BME280;44527;47.460;19.016;2023-03-31T04:16:00;99838.00;;;8.19;100.00
58757;BME280;44527;47.460;19.016;2023-03-31T04:19:02;99830.56;;;8.13;100.00
58757;BME280;44527;47.460;19.016;2023-03-31T04:22:07;99828.56;;;8.16;100.00
58757;BME280;44527;47.460;19.016;2023-03-31T04:25:13;99829.59;;;7.87;100.00
58757;BME280;44527;47.460;19.016;2023-03-31T04:28:18;99836.06;;;7.81;100.00
58757;BME280;44527;47.460;19.016;2023-03-31T04:31:21;99832.87;;;7.76;100.00
58757;BME280;44527;47.460;19.016;2023-03-31T04:34:27;99838.94;;;7.76;100.00
58757;BME280;44527;47.460;19.016;2023-03-31T04:37:36;99839.78;;;7.77;100.00
58757;BME280;44527;47.460;19.016;2023-03-31T04:40:40;99843.78;;;7.82;100.00
58757;BME280;44527;47.460;19.016;2023-03-31T04:43:45;99836.38;;;8.03;100.00
58757;BME280;44527;47.460;19.016;2023-03-31T04:46:47;99837.78;;;7.95;100.00
58757;BME280;44527;47.460;19.016;2023-03-31T04:49:50;99843.06;;;8.07;100.00
58757;BME280;44527;47.460;19.016;2023-03-31T04:52:52;99836.16;;;8.06;100.00
58757;BME280;44527;47.460;19.016;2023-03-31T04:55:54;99837.41;;;8.28;100.00
58757;BME280;44527;47.460;19.016;2023-03-31T04:58:57;99831.41;;;8.40;100.00
58757;BME280;44527;47.460;19.016;2023-03-31T05:01:59;99837.84;;;8.49;100.00
58757;BME280;44527;47.460;19.016;2023-03-31T05:05:02;99831.44;;;8.53;100.00
58757;BME280;44527;47.460;19.016;2023-03-31T05:08:06;99830.41;;;8.56;100.00
58757;BME280;44527;47.460;19.016;2023-03-31T05:11:08;99819.00;;;8.57;100.00
58757;BME280;44527;47.460;19.016;2023-03-31T05:14:12;99813.81;;;8.69;100.00
58757;BME280;44527;47.460;19.016;2023-03-31T05:17:14;99809.22;;;8.86;100.00
58757;BME280;44527;47.460;19.016;2023-03-31T05:20:18;99810.19;;;9.10;100.00
58757;BME280;44527;47.460;19.016;2023-03-31T05:23:21;99807.91;;;10.05;100.00
58757;BME280;44527;47.460;19.016;2023-03-31T05:26:23;99803.47;;;12.01;100.00
58757;BME280;44527;47.460;19.016;2023-03-31T05:29:26;99814.66;;;14.11;86.21
58757;BME280;44527;47.460;19.016;2023-03-31T05:32:29;99818.13;;;15.83;77.05
58757;BME280;44527;47.460;19.016;2023-03-31T05:35:32;99819.66;;;16.93;71.72
58757;BME280;44527;47.460;19.016;2023-03-31T05:38:34;99817.16;;;17.86;67.84
58757;BME280;44527;47.460;19.016;2023-03-31T05:41:37;99810.66;;;18.40;66.50
58757;BME280;44527;47.460;19.016;2023-03-31T05:44:39;99809.63;;;19.62;59.42
58757;BME280;44527;47.460;19.016;2023-03-31T05:47:42;99820.72;;;19.90;58.32
58757;BME280;44527;47.460;19.016;2023-03-31T05:50:44;99814.41;;;21.36;52.62
58757;BME280;44527;47.460;19.016;2023-03-31T05:53:47;99814.00;;;21.98;50.97
58757;BME280;44527;47.460;19.016;2023-03-31T05:56:49;99811.28;;;22.77;48.25
58757;BME280;44527;47.460;19.016;2023-03-31T05:59:51;99816.09;;;22.88;47.55
58757;BME280;44527;47.460;19.016;2023-03-31T06:02:53;99811.25;;;23.27;45.53
58757;BME280;44527;47.460;19.016;2023-03-31T06:05:56;99804.09;;;22.99;45.91
58757;BME280;44527;47.460;19.016;2023-03-31T06:08:59;99810.31;;;22.85;46.16
58757;BME280;44527;47.460;19.016;2023-03-31T06:12:02;99799.91;;;21.89;48.22
58757;BME280;44527;47.460;19.016;2023-03-31T06:15:04;99795.50;;;21.07;50.42
58757;BME280;44527;47.460;19.016;2023-03-31T06:18:07;99797.16;;;20.94;51.19
58757;BME280;44527;47.460;19.016;2023-03-31T06:21:12;99800.78;;;20.78;52.13
58757;BME280;44527;47.460;19.016;2023-03-31T06:24:14;99793.22;;;22.00;48.63
58757;BME280;44527;47.460;19.016;2023-03-31T06:27:16;99801.84;;;22.32;48.04
58757;BME280;44527;47.460;19.016;2023-03-31T06:30:19;99794.38;;;22.98;46.98
58757;BME280;44527;47.460;19.016;2023-03-31T06:33:22;99794.19;;;23.34;45.82
58757;BME280;44527;47.460;19.016;2023-03-31T06:36:24;99795.91;;;23.14;46.16
58757;BME280;44527;47.460;19.016;2023-03-31T06:39:26;99791.09;;;22.96;46.42
58757;BME280;44527;47.460;19.016;2023-03-31T06:42:29;99785.56;;;23.04;45.25
58757;BME280;44527;47.460;19.016;2023-03-31T06:45:32;99790.25;;;23.24;46.38
58757;BME280;44527;47.460;19.016;2023-03-31T06:48:34;99790.00;;;22.90;47.17
58757;BME280;44527;47.460;19.016;2023-03-31T06:51:37;99785.41;;;23.95;45.69
58757;BME280;44527;47.460;19.016;2023-03-31T06:54:40;99781.28;;;23.99;44.07
58757;BME280;44527;47.460;19.016;2023-03-31T06:57:43;99785.69;;;24.20;44.68
58757;BME280;44527;47.460;19.016;2023-03-31T07:00:46;99791.53;;;24.84;41.87
58757;BME280;44527;47.460;19.016;2023-03-31T07:03:48;99793.13;;;25.25;41.54
58757;BME280;44527;47.460;19.016;2023-03-31T07:06:50;99798.34;;;25.71;39.25
58757;BME280;44527;47.460;19.016;2023-03-31T07:09:52;99806.81;;;24.83;41.05
58757;BME280;44527;47.460;19.016;2023-03-31T07:12:57;99806.50;;;25.51;39.66
58757;BME280;44527;47.460;19.016;2023-03-31T07:15:59;99804.72;;;25.18;41.58
58757;BME280;44527;47.460;19.016;2023-03-31T07:19:02;99806.16;;;25.21;42.26
58757;BME280;44527;47.460;19.016;2023-03-31T07:22:05;99802.94;;;25.64;38.68
58757;BME280;44527;47.460;19.016;2023-03-31T07:25:08;99792.81;;;25.66;39.69
58757;BME280;44527;47.460;19.016;2023-03-31T07:28:10;99794.44;;;24.56;38.52
58757;BME280;44527;47.460;19.016;2023-03-31T07:31:13;99788.72;;;23.97;40.29
58757;BME280;44527;47.460;19.016;2023-03-31T07:34:15;99776.88;;;23.72;41.15
58757;BME280;44527;47.460;19.016;2023-03-31T07:37:18;99782.31;;;23.09;42.79
58757;BME280;44527;47.460;19.016;2023-03-31T07:40:22;99779.41;;;22.33;45.81
58757;BME280;44527;47.460;19.016;2023-03-31T07:43:24;99761.72;;;21.74;47.63
58757;BME280;44527;47.460;19.016;2023-03-31T07:46:29;99757.69;;;21.04;49.43
58757;BME280;44527;47.460;19.016;2023-03-31T07:49:32;99754.22;;;19.73;53.50
58757;BME280;44527;47.460;19.016;2023-03-31T07:52:34;99746.53;;;19.79;54.93
58757;BME280;44527;47.460;19.016;2023-03-31T07:55:37;99745.50;;;19.01;56.86
58757;BME280;44527;47.460;19.016;2023-03-31T07:58:39;99746.03;;;19.44;53.71
58757;BME280;44527;47.460;19.016;2023-03-31T08:01:41;99755.41;;;19.32;56.37
58757;BME280;44527;47.460;19.016;2023-03-31T08:04:44;99755.81;;;18.96;57.78
58757;BME280;44527;47.460;19.016;2023-03-31T08:07:48;99745.03;;;18.73;56.60
58757;BME280;44527;47.460;19.016;2023-03-31T08:10:54;99743.00;;;19.08;56.56
58757;BME280;44527;47.460;19.016;2023-03-31T08:13:59;99732.81;;;19.19;56.53
58757;BME280;44527;47.460;19.016;2023-03-31T08:17:01;99726.72;;;19.02;56.82
58757;BME280;44527;47.460;19.016;2023-03-31T08:20:05;99722.22;;;19.82;55.26
58757;BME280;44527;47.460;19.016;2023-03-31T08:23:13;99715.22;;;19.10;55.43
58757;BME280;44527;47.460;19.016;2023-03-31T08:26:18;99719.41;;;19.44;56.02
58757;BME280;44527;47.460;19.016;2023-03-31T08:29:22;99715.28;;;18.69;55.91
58757;BME280;44527;47.460;19.016;2023-03-31T08:32:24;99711.16;;;18.83;57.46
58757;BME280;44527;47.460;19.016;2023-03-31T08:35:27;99704.00;;;18.75;57.16
58757;BME280;44527;47.460;19.016;2023-03-31T08:38:29;99693.16;;;19.01;56.79
58757;BME280;44527;47.460;19.016;2023-03-31T08:48:00;99674.63;;;18.36;59.50
58757;BME280;44527;47.460;19.016;2023-03-31T08:51:12;99672.16;;;18.34;60.27
58757;BME280;44527;47.460;19.016;2023-03-31T08:57:30;99666.13;;;17.75;62.82
58757;BME280;44527;47.460;19.016;2023-03-31T09:00:39;99659.31;;;17.48;64.88
58757;BME280;44527;47.460;19.016;2023-03-31T09:03:45;99650.06;;;17.10;68.29
58757;BME280;44527;47.460;19.016;2023-03-31T09:10:19;99636.34;;;16.80;70.24
58757;BME280;44527;47.460;19.016;2023-03-31T09:16:42;99633.94;;;17.45;69.67
58757;BME280;44527;47.460;19.016;2023-03-31T09:19:49;99638.59;;;17.52;67.72
58757;BME280;44527;47.460;19.016;2023-03-31T09:23:03;99623.84;;;17.74;68.64
58757;BME280;44527;47.460;19.016;2023-03-31T09:26:12;99613.44;;;17.80;69.14
58757;BME280;44527;47.460;19.016;2023-03-31T09:29:21;99612.09;;;17.84;64.85
58757;BME280;44527;47.460;19.016;2023-03-31T09:32:27;99610.88;;;18.36;65.34
58757;BME280;44527;47.460;19.016;2023-03-31T09:35:30;99607.88;;;18.55;63.94
58757;BME280;44527;47.460;19.016;2023-03-31T09:38:35;99608.00;;;18.70;60.09
58757;BME280;44527;47.460;19.016;2023-03-31T09:41:37;99599.97;;;19.18;58.50
58757;BME280;44527;47.460;19.016;2023-03-31T09:44:44;99597.34;;;19.10;55.49
58757;BME280;44527;47.460;19.016;2023-03-31T09:47:51;99590.19;;;18.79;56.49
58757;BME280;44527;47.460;19.016;2023-03-31T09:50:58;99586.12;;;18.99;55.85
58757;BME280;44527;47.460;19.016;2023-03-31T09:54:03;99591.31;;;18.85;56.70
58757;BME280;44527;47.460;19.016;2023-03-31T09:57:13;99582.59;;;18.59;57.36
58757;BME280;44527;47.460;19.016;2023-03-31T10:00:19;99578.62;;;18.55;58.04
58757;BME280;44527;47.460;19.016;2023-03-31T10:03:25;99573.47;;;18.62;57.34
58757;BME280;44527;47.460;19.016;2023-03-31T10:06:31;99569.03;;;18.38;56.85
58757;BME280;44527;47.460;19.016;2023-03-31T10:09:33;99563.66;;;18.07;59.42
58757;BME280;44527;47.460;19.016;2023-03-31T10:12:39;99552.00;;;18.08;61.12
58757;BME280;44527;47.460;19.016;2023-03-31T10:15:42;99546.31;;;18.35;62.13
58757;BME280;44527;47.460;19.016;2023-03-31T10:18:44;99545.28;;;18.45;61.02
58757;BME280;44527;47.460;19.016;2023-03-31T10:21:47;99537.19;;;18.69;62.58
58757;BME280;44527;47.460;19.016;2023-03-31T10:24:50;99532.72;;;18.70;60.30
58757;BME280;44527;47.460;19.016;2023-03-31T10:27:52;99531.78;;;18.54;58.74
58757;BME280;44527;47.460;19.016;2023-03-31T10:30:56;99526.72;;;18.36;53.97
58757;BME280;44527;47.460;19.016;2023-03-31T10:34:06;99516.28;;;18.27;54.41
58757;BME280;44527;47.460;19.016;2023-03-31T10:37:12;99516.41;;;18.42;56.05
58757;BME280;44527;47.460;19.016;2023-03-31T10:40:25;99512.28;;;18.31;57.32
58757;BME280;44527;47.460;19.016;2023-03-31T10:43:36;99512.31;;;18.23;58.08
58757;BME280;44527;47.460;19.016;2023-03-31T10:46:49;99514.81;;;18.16;61.27
58757;BME280;44527;47.460;19.016;2023-03-31T10:49:56;99502.16;;;18.26;61.78
58757;BME280;44527;47.460;19.016;2023-03-31T10:53:00;99502.53;;;18.15;61.56
58757;BME280;44527;47.460;19.016;2023-03-31T11:05:51;99492.75;;;18.16;61.04
58757;BME280;44527;47.460;19.016;2023-03-31T11:09:06;99490.06;;;18.24;60.75
58757;BME280;44527;47.460;19.016;2023-03-31T11:12:20;99472.06;;;18.42;59.70
58757;BME280;44527;47.460;19.016;2023-03-31T11:18:51;99484.75;;;18.94;55.38
58757;BME280;44527;47.460;19.016;2023-03-31T11:44:29;99402.12;;;19.86;53.20
58757;BME280;44527;47.460;19.016;2023-03-31T11:47:43;99385.63;;;19.76;53.77
58757;BME280;44527;47.460;19.016;2023-03-31T11:50:48;99386.81;;;19.88;53.67
58757;BME280;44527;47.460;19.016;2023-03-31T11:53:51;99381.84;;;19.70;51.83
58757;BME280;44527;47.460;19.016;2023-03-31T11:56:55;99374.81;;;19.78;52.84
58757;BME280;44527;47.460;19.016;2023-03-31T11:59:59;99376.25;;;19.80;54.27
58757;BME280;44527;47.460;19.016;2023-03-31T12:03:14;99372.44;;;20.19;52.55
58757;BME280;44527;47.460;19.016;2023-03-31T12:06:18;99360.13;;;20.18;53.24
58757;BME280;44527;47.460;19.016;2023-03-31T12:09:23;99350.09;;;19.84;55.47
58757;BME280;44527;47.460;19.016;2023-03-31T12:12:28;99340.94;;;19.71;57.07
58757;BME280;44527;47.460;19.016;2023-03-31T12:15:41;99344.78;;;19.84;57.88
58757;BME280;44527;47.460;19.016;2023-03-31T12:19:03;99344.63;;;20.07;56.62
58757;BME280;44527;47.460;19.016;2023-03-31T12:22:11;99338.22;;;20.01;54.51
58757;BME280;44527;47.460;19.016;2023-03-31T12:25:17;99329.38;;;20.15;54.20
58757;BME280;44527;47.460;19.016;2023-03-31T12:28:23;99327.06;;;20.49;52.99
58757;BME280;44527;47.460;19.016;2023-03-31T12:31:28;99324.56;;;20.90;51.68
58757;BME280;44527;47.460;19.016;2023-03-31T12:34:34;99325.06;;;21.00;51.25
58757;BME280;44527;47.460;19.016;2023-03-31T13:00:17;99276.53;;;20.19;54.19
58757;BME280;44527;47.460;19.016;2023-03-31T13:03:35;99272.06;;;20.05;55.51
58757;BME280;44527;47.460;19.016;2023-03-31T13:09:41;99275.75;;;19.38;57.53
58757;BME280;44527;47.460;19.016;2023-03-31T13:16:05;99262.53;;;19.44;56.35
58757;BME280;44527;47.460;19.016;2023-03-31T13:19:08;99247.97;;;19.11;54.76
58757;BME280;44527;47.460;19.016;2023-03-31T13:28:32;99214.72;;;19.66;51.21
58757;BME280;44527;47.460;19.016;2023-03-31T13:34:57;99208.91;;;19.62;51.04
58757;BME280;44527;47.460;19.016;2023-03-31T14:10:41;99154.97;;;18.88;51.74
58757;BME280;44527;47.460;19.016;2023-03-31T14:13:44;99138.56;;;18.84;50.85
58757;BME280;44527;47.460;19.016;2023-03-31T14:17:00;99133.63;;;18.81;50.71
58757;BME280;44527;47.460;19.016;2023-03-31T14:39:23;99073.13;;;18.83;49.21
58757;BME280;44527;47.460;19.016;2023-03-31T14:42:40;99074.75;;;18.54;50.08
58757;BME280;44527;47.460;19.016;2023-03-31T14:45:43;99070.06;;;18.27;51.35
58757;BME280;44527;47.460;19.016;2023-03-31T14:48:46;99058.16;;;18.23;52.83
58757;BME280;44527;47.460;19.016;2023-03-31T14:51:50;99051.00;;;18.08;53.32
58757;BME280;44527;47.460;19.016;2023-03-31T14:54:54;99051.62;;;17.96;53.54
58757;BME280;44527;47.460;19.016;2023-03-31T14:57:57;99061.88;;;17.99;55.01
58757;BME280;44527;47.460;19.016;2023-03-31T15:01:04;99047.94;;;17.97;54.41
58757;BME280;44527;47.460;19.016;2023-03-31T15:04:09;99049.13;;;17.79;54.94
58757;BME280;44527;47.460;19.016;2023-03-31T15:07:13;99047.09;;;17.58;56.05
58757;BME280;44527;47.460;19.016;2023-03-31T15:10:18;99053.12;;;17.52;57.42
58757;BME280;44527;47.460;19.016;2023-03-31T15:13:25;99056.16;;;17.41;57.85
58757;BME280;44527;47.460;19.016;2023-03-31T15:16:32;99046.56;;;17.40;57.51
58757;BME280;44527;47.460;19.016;2023-03-31T15:19:36;99052.81;;;17.47;56.06
58757;BME280;44527;47.460;19.016;2023-03-31T15:22:38;99047.47;;;17.55;53.91
58757;BME280;44527;47.460;19.016;2023-03-31T15:25:40;99043.22;;;17.46;51.95
58757;BME280;44527;47.460;19.016;2023-03-31T15:28:54;99047.28;;;17.34;51.98
58757;BME280;44527;47.460;19.016;2023-03-31T15:31:58;99042.09;;;17.17;53.36
58757;BME280;44527;47.460;19.016;2023-03-31T15:35:00;99033.31;;;16.86;55.27
58757;BME280;44527;47.460;19.016;2023-03-31T15:38:23;99028.53;;;16.73;55.98
58757;BME280;44527;47.460;19.016;2023-03-31T15:41:28;99019.66;;;16.66;56.65
58757;BME280;44527;47.460;19.016;2023-03-31T15:44:36;99014.03;;;16.61;56.96
58757;BME280;44527;47.460;19.016;2023-03-31T15:47:44;99015.53;;;16.55;57.37
58757;BME280;44527;47.460;19.016;2023-03-31T15:50:49;98999.84;;;16.45;56.98
58757;BME280;44527;47.460;19.016;2023-03-31T15:53:52;99001.72;;;16.37;57.05
58757;BME280;44527;47.460;19.016;2023-03-31T15:56:56;99002.06;;;16.34;57.25
58757;BME280;44527;47.460;19.016;2023-03-31T16:00:00;98993.00;;;16.20;57.74
58757;BME280;44527;47.460;19.016;2023-03-31T16:03:04;98987.72;;;16.12;57.57
58757;BME280;44527;47.460;19.016;2023-03-31T16:06:19;98988.88;;;16.09;57.58
58757;BME280;44527;47.460;19.016;2023-03-31T16:09:24;98994.03;;;16.02;57.84
58757;BME280;44527;47.460;19.016;2023-03-31T16:12:41;98995.00;;;16.09;58.14
58757;BME280;44527;47.460;19.016;2023-03-31T16:15:50;98998.31;;;16.03;58.05
58757;BME280;44527;47.460;19.016;2023-03-31T16:18:59;98989.59;;;15.95;57.69
58757;BME280;44527;47.460;19.016;2023-03-31T16:22:04;98983.00;;;15.82;57.85
58757;BME280;44527;47.460;19.016;2023-03-31T16:25:08;98988.28;;;15.66;58.54
58757;BME280;44527;47.460;19.016;2023-03-31T16:28:34;98988.13;;;15.59;59.16
58757;BME280;44527;47.460;19.016;2023-03-31T16:31:35;98993.91;;;15.38;59.78
58757;BME280;44527;47.460;19.016;2023-03-31T16:34:57;98998.34;;;15.13;60.93
58757;BME280;44527;47.460;19.016;2023-03-31T16:38:00;99006.59;;;15.02;61.73
58757;BME280;44527;47.460;19.016;2023-03-31T16:41:05;99003.41;;;14.90;62.50
58757;BME280;44527;47.460;19.016;2023-03-31T16:44:08;99006.38;;;14.79;63.32
58757;BME280;44527;47.460;19.016;2023-03-31T16:47:15;99012.44;;;14.71;64.24
58757;BME280;44527;47.460;19.016;2023-03-31T16:50:35;99017.59;;;14.73;64.11
58757;BME280;44527;47.460;19.016;2023-03-31T16:53:37;99025.19;;;14.76;64.00
58757;BME280;44527;47.460;19.016;2023-03-31T16:56:40;99025.00;;;14.78;64.05
58757;BME280;44527;47.460;19.016;2023-03-31T16:59:42;99013.62;;;14.77;63.93
58757;BME280;44527;47.460;19.016;2023-03-31T17:02:47;99020.53;;;14.70;64.86
58757;BME280;44527;47.460;19.016;2023-03-31T17:05:50;99006.66;;;14.68;64.71
58757;BME280;44527;47.460;19.016;2023-03-31T17:08:54;99009.63;;;14.65;64.98
58757;BME280;44527;47.460;19.016;2023-03-31T17:11:56;99010.59;;;14.56;65.17
58757;BME280;44527;47.460;19.016;2023-03-31T17:14:59;99006.62;;;14.52;65.58
58757;BME280;44527;47.460;19.016;2023-03-31T17:18:01;99016.72;;;14.30;65.79
58757;BME280;44527;47.460;19.016;2023-03-31T17:21:06;99005.59;;;14.18;66.00
58757;BME280;44527;47.460;19.016;2023-03-31T17:24:10;98991.34;;;14.03;66.98
58757;BME280;44527;47.460;19.016;2023-03-31T17:27:14;98989.72;;;14.10;67.23
58757;BME280;44527;47.460;19.016;2023-03-31T17:30:16;98978.16;;;14.03;67.77
58757;BME280;44527;47.460;19.016;2023-03-31T17:33:19;98977.91;;;13.88;68.09
58757;BME280;44527;47.460;19.016;2023-03-31T17:36:22;98976.44;;;13.94;68.14
58757;BME280;44527;47.460;19.016;2023-03-31T17:39:24;98976.75;;;13.91;68.34
58757;BME280;44527;47.460;19.016;2023-03-31T17:42:28;98978.88;;;13.87;68.39
58757;BME280;44527;47.460;19.016;2023-03-31T17:45:31;98967.41;;;13.96;68.12
58757;BME280;44527;47.460;19.016;2023-03-31T17:48:34;98955.59;;;13.83;68.93
58757;BME280;44527;47.460;19.016;2023-03-31T17:51:38;98950.69;;;13.88;68.79
58757;BME280;44527;47.460;19.016;2023-03-31T17:54:40;98964.31;;;13.75;69.43
58757;BME280;44527;47.460;19.016;2023-03-31T17:57:43;98968.12;;;13.81;69.41
58757;BME280;44527;47.460;19.016;2023-03-31T18:00:46;98979.81;;;13.78;69.64
58757;BME280;44527;47.460;19.016;2023-03-31T18:03:49;98992.63;;;13.73;69.89
58757;BME280;44527;47.460;19.016;2023-03-31T18:06:51;98988.69;;;13.77;70.12
58757;BME280;44527;47.460;19.016;2023-03-31T18:09:53;98996.91;;;13.74;70.70
58757;BME280;44527;47.460;19.016;2023-03-31T18:12:56;99002.03;;;13.75;71.03
58757;BME280;44527;47.460;19.016;2023-03-31T18:16:00;99002.41;;;13.81;71.91
58757;BME280;44527;47.460;19.016;2023-03-31T18:19:03;99003.56;;;13.78;73.24
58757;BME280;44527;47.460;19.016;2023-03-31T18:22:06;99001.47;;;13.64;75.77
58757;BME280;44527;47.460;19.016;2023-03-31T18:25:09;99015.56;;;13.54;77.59
58757;BME280;44527;47.460;19.016;2023-03-31T18:28:13;99010.28;;;13.54;78.56
58757;BME280;44527;47.460;19.016;2023-03-31T18:31:15;99021.44;;;13.48;79.76
58757;BME280;44527;47.460;19.016;2023-03-31T18:34:18;99008.19;;;13.40;80.14
58757;BME280;44527;47.460;19.016;2023-03-31T18:37:20;99007.00;;;13.35;80.85
58757;BME280;44527;47.460;19.016;2023-03-31T18:40:24;99009.00;;;13.23;80.28
58757;BME280;44527;47.460;19.016;2023-03-31T18:43:26;99015.03;;;13.15;81.40
58757;BME280;44527;47.460;19.016;2023-03-31T18:46:28;99017.19;;;13.02;82.47
58757;BME280;44527;47.460;19.016;2023-03-31T18:49:31;99023.13;;;13.04;83.61
58757;BME280;44527;47.460;19.016;2023-03-31T18:52:33;99020.06;;;13.08;82.47
58757;BME280;44527;47.460;19.016;2023-03-31T18:55:37;99017.53;;;13.17;81.83
58757;BME280;44527;47.460;19.016;2023-03-31T18:58:40;99016.41;;;13.19;81.84
58757;BME280;44527;47.460;19.016;2023-03-31T19:01:42;99007.19;;;13.23;81.59
58757;BME280;44527;47.460;19.016;2023-03-31T19:04:45;99015.53;;;13.19;82.31
58757;BME280;44527;47.460;19.016;2023-03-31T19:07:47;99008.53;;;13.09;83.49
58757;BME280;44527;47.460;19.016;2023-03-31T19:10:50;99021.25;;;12.96;83.86
58757;BME280;44527;47.460;19.016;2023-03-31T19:13:52;99023.97;;;13.04;83.09
58757;BME280;44527;47.460;19.016;2023-03-31T19:16:57;99013.75;;;13.01;83.49
58757;BME280;44527;47.460;19.016;2023-03-31T19:19:59;99012.88;;;13.01;83.35
58757;BME280;44527;47.460;19.016;2023-03-31T19:23:01;99008.47;;;13.01;83.46
58757;BME280;44527;47.460;19.016;2023-03-31T19:26:04;99011.78;;;13.03;83.05